createdAt,value
2022-09-06T00:01:22.352Z,20.120001
2022-09-06T00:04:47.615Z,20.040001
2022-09-06T00:08:12.862Z,20
2022-09-06T00:11:38.108Z,19.950001
2022-09-06T00:15:03.389Z,19.889999
2022-09-06T00:18:28.724Z,19.82
2022-09-06T00:21:53.929Z,19.77
2022-09-06T00:25:19.178Z,19.719999
2022-09-06T00:28:44.456Z,19.67
2022-09-06T00:32:09.717Z,19.639999
2022-09-06T00:35:34.981Z,19.58
2022-09-06T00:39:00.244Z,19.52
2022-09-06T00:42:25.524Z,19.48
2022-09-06T00:45:50.837Z,19.440001
2022-09-06T00:49:16.048Z,19.379999
2022-09-06T00:52:41.319Z,19.34
2022-09-06T00:56:06.574Z,19.299999
2022-09-06T00:59:31.822Z,19.26
2022-09-06T01:02:57.088Z,19.209999
2022-09-06T01:06:22.341Z,19.139999
2022-09-06T01:09:47.612Z,19.07
2022-09-06T01:13:12.868Z,19.01
2022-09-06T01:16:38.108Z,18.940001
2022-09-06T01:20:03.393Z,18.9
2022-09-06T01:23:28.655Z,18.84
2022-09-06T01:26:53.910Z,18.83
2022-09-06T01:30:19.131Z,18.809999
2022-09-06T01:33:44.394Z,18.799999
2022-09-06T01:37:10.729Z,18.77
2022-09-06T01:40:34.906Z,18.75
2022-09-06T01:44:00.176Z,18.690001
2022-09-06T01:47:25.413Z,18.65
2022-09-06T01:50:50.647Z,18.6
2022-09-06T01:54:15.892Z,18.549999
2022-09-06T01:57:41.153Z,18.5
2022-09-06T02:01:06.464Z,18.440001
2022-09-06T02:04:31.674Z,18.42
2022-09-06T02:07:56.914Z,18.4
2022-09-06T02:11:22.174Z,18.370001
2022-09-06T02:14:47.436Z,18.33
2022-09-06T02:18:23.047Z,18.299999
2022-09-06T02:21:50.245Z,18.26
2022-09-06T02:25:15.489Z,18.24
2022-09-06T02:28:40.744Z,18.219999
2022-09-06T02:32:05.978Z,18.200001
2022-09-06T02:35:31.246Z,18.190001
2022-09-06T02:38:56.497Z,18.190001
2022-09-06T02:42:21.741Z,18.18
2022-09-06T02:45:47.045Z,18.18
2022-09-06T02:49:12.267Z,18.17
2022-09-06T02:52:37.538Z,18.17
2022-09-06T02:56:02.821Z,18.17
2022-09-06T02:59:28.076Z,18.17
2022-09-06T03:02:53.355Z,18.190001
2022-09-06T03:06:18.626Z,18.24
2022-09-06T03:09:43.856Z,18.26
2022-09-06T03:13:09.105Z,18.280001
2022-09-06T03:16:34.430Z,18.299999
2022-09-06T03:19:59.619Z,18.299999
2022-09-06T03:23:24.880Z,18.299999
2022-09-06T03:26:50.107Z,18.309999
2022-09-06T03:30:15.345Z,18.34
2022-09-06T03:33:40.592Z,18.33
2022-09-06T03:37:05.867Z,18.33
2022-09-06T03:40:31.135Z,18.32
2022-09-06T03:43:56.422Z,18.32
2022-09-06T03:47:21.672Z,18.32
2022-09-06T03:50:46.959Z,18.32
2022-09-06T03:54:12.202Z,18.32
2022-09-06T03:57:37.460Z,18.33
2022-09-06T04:01:02.826Z,18.309999
2022-09-06T04:04:27.975Z,18.290001
2022-09-06T04:07:53.283Z,18.25
2022-09-06T04:11:18.526Z,18.23
2022-09-06T04:14:43.771Z,18.209999
2022-09-06T04:18:09.399Z,18.18
2022-09-06T04:21:34.278Z,18.120001
2022-09-06T04:24:59.553Z,18.09
2022-09-06T04:28:24.787Z,18.110001
2022-09-06T04:31:50.091Z,18.15
2022-09-06T04:35:15.269Z,18.18
2022-09-06T04:38:40.519Z,18.200001
2022-09-06T04:42:05.738Z,18.219999
2022-09-06T04:45:31.066Z,18.23
2022-09-06T04:48:56.243Z,18.24
2022-09-06T04:52:21.493Z,18.26
2022-09-06T04:55:46.731Z,18.25
2022-09-06T04:59:11.952Z,18.290001
2022-09-06T05:02:37.278Z,18.33
2022-09-06T05:06:02.471Z,18.379999
2022-09-06T05:09:27.705Z,18.42
2022-09-06T05:12:52.961Z,18.450001
2022-09-06T05:16:18.251Z,18.48
2022-09-06T05:19:43.436Z,18.51
2022-09-06T05:23:08.682Z,18.540001
2022-09-06T05:26:33.952Z,18.57
2022-09-06T05:29:59.196Z,18.59
2022-09-06T05:33:24.459Z,18.620001
2022-09-06T05:36:49.712Z,18.66
2022-09-06T05:40:14.959Z,18.68
2022-09-06T05:43:40.176Z,18.690001
2022-09-06T05:47:05.416Z,18.709999
2022-09-06T05:50:30.693Z,18.73
2022-09-06T05:53:55.936Z,18.77
2022-09-06T05:57:21.195Z,18.809999
2022-09-06T06:00:46.444Z,18.860001
2022-09-06T06:04:12.176Z,18.889999
2022-09-06T06:07:37.397Z,18.93
2022-09-06T06:11:02.658Z,18.969999
2022-09-06T06:14:27.902Z,19.01
2022-09-06T06:17:53.159Z,19.049999
2022-09-06T06:21:18.406Z,19.08
2022-09-06T06:24:43.655Z,19.139999
2022-09-06T06:28:08.881Z,19.190001
2022-09-06T06:31:34.189Z,19.25
2022-09-06T06:34:59.378Z,19.32
2022-09-06T06:38:24.656Z,19.42
2022-09-06T06:41:49.847Z,19.51
2022-09-06T06:45:15.138Z,19.59
2022-09-06T06:48:40.333Z,19.66
2022-09-06T06:52:05.580Z,19.709999
2022-09-06T06:55:30.827Z,19.76
2022-09-06T06:58:56.071Z,19.790001
2022-09-06T07:02:21.344Z,19.83
2022-09-06T07:09:11.814Z,19.93
2022-09-06T07:12:37.047Z,19.98
2022-09-06T07:16:02.350Z,20.030001
2022-09-06T07:22:52.767Z,20.17
2022-09-06T07:26:18.040Z,20.219999
2022-09-06T07:29:43.280Z,20.290001
2022-09-06T07:33:08.530Z,20.370001
2022-09-06T07:36:33.763Z,20.440001
2022-09-06T07:39:59.079Z,20.58
2022-09-06T07:43:24.348Z,20.73
2022-09-06T07:46:49.582Z,20.889999
2022-09-06T07:53:40.051Z,21.16
2022-09-06T07:57:05.248Z,21.26
2022-09-06T08:00:30.502Z,21.370001
2022-09-06T08:03:55.863Z,21.469999
2022-09-06T08:10:46.320Z,21.6
2022-09-06T08:14:11.521Z,21.67
2022-09-06T08:17:36.739Z,21.73
2022-09-06T08:21:01.970Z,21.77
2022-09-06T08:24:27.230Z,21.780001
2022-09-06T08:27:52.461Z,21.780001
2022-09-06T08:31:17.758Z,21.77
2022-09-06T08:34:42.951Z,21.77
2022-09-06T08:38:08.209Z,21.780001
2022-09-06T08:41:33.393Z,21.780001
2022-09-06T08:44:58.786Z,21.780001
2022-09-06T08:48:23.950Z,21.799999
2022-09-06T08:51:49.088Z,21.860001
2022-09-06T08:55:14.331Z,21.91
2022-09-06T08:58:39.569Z,21.959999
2022-09-06T09:02:04.862Z,22.030001
2022-09-06T09:05:30.044Z,22.049999
2022-09-06T09:08:55.301Z,22.09
2022-09-06T09:12:20.530Z,22.09
2022-09-06T09:15:45.789Z,22.09
2022-09-06T09:19:11.014Z,22.1
2022-09-06T09:22:36.245Z,22.120001
2022-09-06T09:26:01.509Z,22.139999
2022-09-06T09:29:28.845Z,22.17
2022-09-06T09:32:52.019Z,22.219999
2022-09-06T09:36:17.268Z,22.290001
2022-09-06T09:39:42.558Z,22.32
2022-09-06T09:43:07.761Z,22.32
2022-09-06T09:46:37.501Z,22.26
2022-09-06T09:50:02.655Z,22.190001
2022-09-06T09:53:27.874Z,22.09
2022-09-06T09:56:53.130Z,22
2022-09-06T10:00:18.353Z,21.91
2022-09-06T10:07:09.112Z,21.74
2022-09-06T10:10:34.057Z,21.67
2022-09-06T10:13:59.290Z,21.58
2022-09-06T10:17:24.524Z,21.530001
2022-09-06T10:20:49.771Z,21.49
2022-09-06T10:24:30.421Z,21.440001
2022-09-06T10:27:50.363Z,21.4
2022-09-06T10:31:05.582Z,21.360001
2022-09-06T10:34:30.727Z,21.280001
2022-09-06T10:37:55.933Z,21.200001
2022-09-06T10:41:21.174Z,21.120001
2022-09-06T10:44:46.416Z,21.07
2022-09-06T10:48:14.686Z,21.01
2022-09-06T10:51:36.885Z,20.99
2022-09-06T10:55:02.111Z,21
2022-09-06T10:58:27.635Z,21.049999
2022-09-06T11:01:52.699Z,21.15
2022-09-06T11:12:08.345Z,21.620001
2022-09-06T11:15:33.613Z,21.73
2022-09-06T11:18:58.837Z,21.860001
2022-09-06T11:22:24.045Z,22.01
2022-09-06T11:25:49.288Z,22.030001
2022-09-06T11:29:14.503Z,22.02
2022-09-06T11:32:39.981Z,22.030001
2022-09-06T11:36:05.106Z,22.09
2022-09-06T11:42:55.561Z,22.280001
2022-09-06T11:46:20.855Z,22.379999
2022-09-06T11:49:46.014Z,22.440001
2022-09-06T11:53:11.256Z,22.48
2022-09-06T11:56:36.520Z,22.5
2022-09-06T12:00:01.812Z,22.540001
2022-09-06T12:06:52.288Z,22.68
2022-09-06T12:10:17.528Z,22.74
2022-09-06T12:13:42.751Z,22.85
2022-09-06T12:17:07.975Z,23.040001
2022-09-06T12:20:33.219Z,23.219999
2022-09-06T12:24:00.493Z,23.32
2022-09-06T12:27:25.744Z,23.43
2022-09-06T12:30:51.038Z,23.43
2022-09-06T12:34:16.234Z,23.379999
2022-09-06T12:37:41.473Z,23.389999
2022-09-06T12:41:06.753Z,23.540001
2022-09-06T12:44:32.434Z,23.690001
2022-09-06T12:47:57.671Z,23.82
2022-09-06T12:51:26.160Z,23.93
2022-09-06T12:54:51.542Z,24
2022-09-06T12:58:16.781Z,24.049999
2022-09-06T13:01:42.245Z,24.1
2022-09-06T13:05:07.232Z,24.059999
2022-09-06T13:08:32.485Z,24.049999
2022-09-06T13:11:58.922Z,24.049999
2022-09-06T13:15:49.005Z,24.040001
2022-09-06T13:19:14.264Z,24.030001
2022-09-06T13:22:39.557Z,24.049999
2022-09-06T13:26:04.870Z,24.09
2022-09-06T13:29:30.169Z,24.18
2022-09-06T13:32:55.467Z,24.219999
2022-09-06T13:36:20.796Z,24.280001
2022-09-06T13:39:46.109Z,24.299999
2022-09-06T13:43:11.372Z,24.299999
2022-09-06T13:46:36.732Z,24.32
2022-09-06T13:50:01.948Z,24.33
2022-09-06T13:53:27.191Z,24.32
2022-09-06T13:56:52.446Z,24.35
2022-09-06T14:00:17.727Z,24.389999
2022-09-06T14:03:42.994Z,24.43
2022-09-06T14:07:08.217Z,24.43
2022-09-06T14:10:33.486Z,24.459999
2022-09-06T14:13:58.776Z,24.450001
2022-09-06T14:17:24.067Z,24.440001
2022-09-06T14:20:49.340Z,24.450001
2022-09-06T14:24:14.623Z,24.5
2022-09-06T14:27:39.917Z,24.49
2022-09-06T15:03:50.466Z,22.440001
2022-09-06T15:07:15.738Z,23.379999
2022-09-06T15:10:41.233Z,23.58
2022-09-06T15:14:06.525Z,23.77
2022-09-06T15:17:31.750Z,23.950001
2022-09-06T15:20:57.041Z,24.09
2022-09-06T15:24:22.394Z,24.17
2022-09-06T15:27:47.643Z,24.209999
2022-09-06T15:31:13.458Z,24.23
2022-09-06T15:34:38.993Z,24.219999
2022-09-06T15:38:04.273Z,24.200001
2022-09-06T15:41:29.539Z,24.200001
2022-09-06T15:44:54.789Z,24.200001
2022-09-06T15:48:20.012Z,24.24
2022-09-06T15:51:45.248Z,24.26
2022-09-06T15:55:10.467Z,24.290001
2022-09-06T15:58:35.718Z,24.280001
2022-09-06T16:02:00.955Z,24.27
2022-09-06T16:08:51.457Z,24.190001
2022-09-06T16:12:16.711Z,24.15
2022-09-06T16:15:41.967Z,24.120001
2022-09-06T16:19:08.363Z,24.09
2022-09-06T16:22:33.580Z,24.030001
2022-09-06T16:25:58.788Z,24.01
2022-09-06T16:29:24.037Z,23.959999
2022-09-06T16:32:49.277Z,23.940001
2022-09-06T16:36:14.538Z,23.940001
2022-09-06T16:39:39.879Z,23.98
2022-09-06T16:43:05.192Z,23.99
2022-09-06T16:46:30.504Z,24
2022-09-06T16:49:55.690Z,24
2022-09-06T16:53:22.149Z,23.98
2022-09-06T16:56:46.155Z,23.959999
2022-09-06T17:00:11.409Z,23.9
2022-09-06T17:03:36.659Z,23.870001
2022-09-06T17:07:01.899Z,23.82
2022-09-06T17:10:27.143Z,23.77
2022-09-06T17:13:52.385Z,23.700001
2022-09-06T17:17:17.618Z,23.639999
2022-09-06T17:20:42.840Z,23.57
2022-09-06T17:24:08.084Z,23.5
2022-09-06T17:27:33.320Z,23.42
2022-09-06T17:30:58.626Z,23.34
2022-09-06T17:34:23.811Z,23.23
2022-09-06T17:37:49.038Z,23.07
2022-09-06T17:41:14.265Z,22.940001
2022-09-06T17:44:39.521Z,22.809999
2022-09-06T17:48:04.769Z,22.690001
2022-09-06T17:51:30.024Z,22.559999
2022-09-06T17:54:55.259Z,22.459999
2022-09-06T17:58:20.493Z,22.34
2022-09-06T18:01:45.993Z,22.24
2022-09-06T18:05:10.984Z,22.120001
2022-09-06T18:08:36.149Z,21.99
2022-09-06T18:12:01.356Z,21.870001
2022-09-06T18:15:26.618Z,21.82
2022-09-06T18:18:51.877Z,21.76
2022-09-06T18:22:17.089Z,21.690001
2022-09-06T18:25:42.266Z,21.610001
2022-09-06T18:29:07.504Z,21.5
2022-09-06T18:32:32.686Z,21.42
2022-09-06T18:35:57.912Z,21.370001
2022-09-06T18:39:23.149Z,21.360001
2022-09-06T18:42:48.407Z,21.370001
2022-09-06T18:46:13.684Z,21.389999
2022-09-06T18:49:43.368Z,21.370001
2022-09-06T18:53:04.150Z,21.35
2022-09-06T18:56:29.400Z,21.32
2022-09-06T18:59:54.629Z,21.299999
2022-09-06T19:03:20.399Z,21.280001
2022-09-06T19:06:45.692Z,21.26
2022-09-06T19:10:11.008Z,21.26
2022-09-06T19:13:36.386Z,21.26
2022-09-06T19:17:01.699Z,21.26
2022-09-06T19:20:27.055Z,21.23
2022-09-06T19:23:52.654Z,21.200001
2022-09-06T19:27:17.918Z,21.129999
2022-09-06T19:30:44.029Z,21.120001
2022-09-06T19:34:09.922Z,21.120001
2022-09-06T19:37:35.331Z,21.129999
2022-09-06T19:41:00.701Z,21.129999
2022-09-06T19:44:26.108Z,21.139999
2022-09-06T19:47:51.552Z,21.129999
2022-09-06T19:51:16.972Z,21.1
2022-09-06T19:54:42.370Z,21.08
2022-09-06T19:58:07.744Z,21.049999
2022-09-06T20:01:33.194Z,21.02
2022-09-06T20:04:58.411Z,20.969999
2022-09-06T20:08:23.901Z,20.950001
2022-09-06T20:11:49.198Z,20.93
2022-09-06T20:15:14.408Z,20.9
2022-09-06T20:18:39.610Z,20.889999
2022-09-06T20:22:04.841Z,20.879999
2022-09-06T20:25:30.053Z,20.85
2022-09-06T20:28:55.228Z,20.809999
2022-09-06T20:32:20.445Z,20.76
2022-09-06T20:35:45.667Z,20.74
2022-09-06T20:39:10.876Z,20.700001
2022-09-06T20:42:36.097Z,20.66
2022-09-06T20:46:01.316Z,20.629999
2022-09-06T20:49:26.561Z,20.620001
2022-09-06T20:52:51.805Z,20.59
2022-09-06T20:56:17.070Z,20.540001
2022-09-06T20:59:42.285Z,20.49
2022-09-06T21:03:07.464Z,20.43
2022-09-06T21:06:32.687Z,20.389999
2022-09-06T21:09:57.928Z,20.35
2022-09-06T21:13:23.131Z,20.290001
2022-09-06T21:16:48.437Z,20.209999
2022-09-06T21:20:13.602Z,20.15
2022-09-06T21:23:38.818Z,20.1
2022-09-06T21:27:04.038Z,20.040001
2022-09-06T21:30:29.265Z,20
2022-09-06T21:33:54.471Z,19.950001
2022-09-06T21:37:19.691Z,19.879999
2022-09-06T21:40:44.944Z,19.809999
2022-09-06T21:44:10.130Z,19.76
2022-09-06T21:47:35.346Z,19.709999
2022-09-06T21:51:00.569Z,19.690001
2022-09-06T21:54:25.775Z,19.65
2022-09-06T21:57:50.975Z,19.620001
2022-09-06T22:01:16.277Z,19.59
2022-09-06T22:04:41.421Z,19.57
2022-09-06T22:08:06.640Z,19.549999
2022-09-06T22:11:31.894Z,19.540001
2022-09-06T22:14:57.135Z,19.559999
2022-09-06T22:18:23.143Z,19.559999
2022-09-06T22:21:48.324Z,19.559999
2022-09-06T22:25:13.590Z,19.559999
2022-09-06T22:28:38.780Z,19.559999
2022-09-06T22:32:03.954Z,19.549999
2022-09-06T22:35:29.269Z,19.549999
2022-09-06T22:38:54.501Z,19.540001
2022-09-06T22:42:19.761Z,19.559999
2022-09-06T22:45:47.506Z,19.58
2022-09-06T22:49:10.180Z,19.6
2022-09-06T22:52:35.412Z,19.620001
2022-09-06T22:56:00.645Z,19.629999
2022-09-06T22:59:25.827Z,19.639999
2022-09-06T23:02:51.092Z,19.66
2022-09-06T23:06:16.345Z,19.66
2022-09-06T23:09:41.574Z,19.67
2022-09-06T23:13:06.814Z,19.690001
2022-09-06T23:16:32.166Z,19.700001
2022-09-06T23:19:57.337Z,19.709999
2022-09-06T23:23:22.617Z,19.719999
2022-09-06T23:26:48.541Z,19.73
2022-09-06T23:30:13.786Z,19.719999
2022-09-06T23:33:39.019Z,19.719999
2022-09-06T23:37:04.248Z,19.719999
2022-09-06T23:40:29.510Z,19.719999
2022-09-06T23:43:54.808Z,19.719999
2022-09-06T23:47:20.061Z,19.74
2022-09-06T23:50:45.332Z,19.75
2022-09-06T23:54:10.600Z,19.75
2022-09-06T23:57:35.874Z,19.709999
